createdAt,value
2019-03-08T00:00:33.793Z,1.40
2019-03-08T00:01:33.764Z,1.50
2019-03-08T00:02:33.754Z,1.70
2019-03-08T00:03:33.733Z,1.60
2019-03-08T00:04:33.725Z,1.70
2019-03-08T00:05:33.724Z,1.80
2019-03-08T00:06:33.713Z,1.70
2019-03-08T00:07:33.698Z,1.60
2019-03-08T00:08:33.696Z,1.40
2019-03-08T00:09:33.692Z,1.70
2019-03-08T00:10:33.659Z,1.40
2019-03-08T00:11:33.724Z,1.80
2019-03-08T00:12:33.641Z,1.40
2019-03-08T00:13:33.642Z,1.70
2019-03-08T00:14:33.616Z,1.80
2019-03-08T00:15:33.610Z,1.50
2019-03-08T00:16:33.602Z,1.80
2019-03-08T00:17:33.600Z,1.40
2019-03-08T00:18:33.582Z,1.20
2019-03-08T00:19:33.562Z,1.30
2019-03-08T00:20:33.576Z,1.30
2019-03-08T00:21:33.541Z,1.10
2019-03-08T00:22:33.539Z,1.20
2019-03-08T00:23:33.531Z,1.30
2019-03-08T00:24:33.526Z,1.40
2019-03-08T00:25:33.509Z,1.40
2019-03-08T00:26:33.558Z,1.30
2019-03-08T00:27:33.483Z,1.50
2019-03-08T00:28:33.493Z,1.50
2019-03-08T00:29:33.467Z,1.40
2019-03-08T00:30:33.458Z,1.20
2019-03-08T00:31:33.440Z,1.40
2019-03-08T00:32:33.443Z,1.40
2019-03-08T00:33:33.423Z,1.40
2019-03-08T00:34:33.457Z,1.30
2019-03-08T00:35:33.397Z,1.10
2019-03-08T00:36:33.387Z,1.40
2019-03-08T00:37:33.376Z,1.30
2019-03-08T00:38:33.354Z,1.20
2019-03-08T00:39:33.347Z,1.30
2019-03-08T00:40:33.354Z,1.40
2019-03-08T00:41:33.319Z,1.60
2019-03-08T00:42:33.317Z,1.20
2019-03-08T00:43:33.297Z,1.10
2019-03-08T00:44:33.292Z,1.40
2019-03-08T00:45:33.293Z,1.40
2019-03-08T00:46:33.278Z,1.10
2019-03-08T00:47:33.285Z,1.30
2019-03-08T00:48:33.260Z,1.50
2019-03-08T00:49:33.239Z,1.40
2019-03-08T00:50:33.268Z,1.20
2019-03-08T00:51:33.244Z,1.40
2019-03-08T00:52:33.260Z,1.40
2019-03-08T00:53:33.196Z,1.20
2019-03-08T00:54:33.179Z,1.50
2019-03-08T00:55:33.179Z,1.60
2019-03-08T00:56:33.160Z,1.60
2019-03-08T00:57:33.167Z,1.10
2019-03-08T00:58:33.140Z,1.50
2019-03-08T00:59:33.130Z,1.50
2019-03-08T01:00:33.114Z,1.30
2019-03-08T01:01:33.098Z,1.60
2019-03-08T01:02:33.097Z,1.50
2019-03-08T01:03:33.109Z,1.40
2019-03-08T01:04:33.074Z,1.30
2019-03-08T01:05:33.062Z,1.50
2019-03-08T01:06:33.053Z,2.60
2019-03-08T01:07:33.039Z,1.50
2019-03-08T01:08:33.063Z,1.30
2019-03-08T01:09:33.047Z,1.40
2019-03-08T01:10:32.993Z,1.20
2019-03-08T01:11:32.982Z,2.00
2019-03-08T01:12:32.988Z,1.10
2019-03-08T01:13:33.106Z,1.20
2019-03-08T01:14:32.957Z,1.70
2019-03-08T01:15:32.958Z,1.50
2019-03-08T01:16:32.935Z,1.50
2019-03-08T01:17:32.926Z,1.80
2019-03-08T01:18:32.918Z,1.50
2019-03-08T01:19:32.903Z,1.50
2019-03-08T01:20:32.954Z,1.40
2019-03-08T01:21:32.931Z,1.10
2019-03-08T01:22:32.873Z,1.50
2019-03-08T01:23:32.855Z,1.70
2019-03-08T01:24:32.850Z,1.70
2019-03-08T01:25:32.837Z,1.90
2019-03-08T01:26:32.895Z,1.80
2019-03-08T01:27:32.807Z,1.60
2019-03-08T01:28:32.797Z,1.90
2019-03-08T01:29:32.788Z,1.50
2019-03-08T01:30:32.806Z,1.80
2019-03-08T01:31:32.765Z,1.60
2019-03-08T01:32:32.759Z,1.60
2019-03-08T01:33:32.739Z,1.70
2019-03-08T01:34:32.735Z,1.50
2019-03-08T01:35:32.720Z,3.10
2019-03-08T01:36:32.718Z,4.20
2019-03-08T01:37:32.707Z,3.50
2019-03-08T01:38:32.692Z,2.20
2019-03-08T01:39:32.688Z,2.80
2019-03-08T01:40:32.668Z,1.50
2019-03-08T01:41:32.654Z,1.30
2019-03-08T01:42:32.660Z,1.70
2019-03-08T01:43:32.640Z,1.50
2019-03-08T01:44:33.895Z,1.60
2019-03-08T01:45:32.625Z,1.10
2019-03-08T01:46:32.596Z,1.50
2019-03-08T01:47:32.597Z,1.30
2019-03-08T01:48:32.612Z,1.50
2019-03-08T01:49:32.566Z,1.30
2019-03-08T01:50:32.551Z,1.40
2019-03-08T01:51:32.645Z,1.50
2019-03-08T01:52:32.546Z,1.20
2019-03-08T01:53:32.523Z,1.10
2019-03-08T01:54:32.512Z,1.50
2019-03-08T01:55:32.517Z,1.50
2019-03-08T01:56:32.480Z,1.00
2019-03-08T01:57:32.474Z,1.10
2019-03-08T01:58:32.485Z,1.30
2019-03-08T01:59:32.469Z,1.50
2019-03-08T02:00:32.594Z,1.10
2019-03-08T02:01:32.441Z,1.50
2019-03-08T02:02:32.419Z,1.00
2019-03-08T02:03:32.427Z,1.10
2019-03-08T02:04:32.402Z,1.20
2019-03-08T02:05:32.399Z,1.20
2019-03-08T02:06:32.389Z,1.40
2019-03-08T02:07:33.220Z,1.30
2019-03-08T02:08:32.350Z,1.40
2019-03-08T02:09:32.349Z,1.30
2019-03-08T02:10:32.340Z,1.70
2019-03-08T02:11:32.345Z,1.30
2019-03-08T02:12:32.320Z,1.10
2019-03-08T02:13:32.299Z,1.10
2019-03-08T02:14:32.289Z,1.30
2019-03-08T02:15:32.281Z,1.30
2019-03-08T02:16:32.292Z,1.30
2019-03-08T02:17:32.259Z,1.80
2019-03-08T02:18:32.250Z,1.70
2019-03-08T02:19:32.226Z,1.30
2019-03-08T02:20:32.218Z,1.20
2019-03-08T02:21:32.214Z,1.10
2019-03-08T02:22:32.200Z,1.10
2019-03-08T02:23:32.181Z,1.40
2019-03-08T02:24:32.172Z,1.40
2019-03-08T02:25:32.158Z,1.50
2019-03-08T02:26:32.153Z,2.10
2019-03-08T02:27:32.154Z,2.90
2019-03-08T02:28:32.130Z,2.50
2019-03-08T02:29:32.183Z,2.30
2019-03-08T02:30:32.111Z,1.50
2019-03-08T02:31:32.099Z,1.50
2019-03-08T02:32:32.109Z,1.20
2019-03-08T02:33:32.095Z,1.20
2019-03-08T02:34:32.060Z,1.40
2019-03-08T02:35:32.057Z,1.70
2019-03-08T02:36:32.030Z,1.50
2019-03-08T02:37:32.027Z,1.40
2019-03-08T02:38:32.021Z,1.50
2019-03-08T02:39:32.010Z,1.40
2019-03-08T02:40:31.996Z,1.40
2019-03-08T02:41:31.997Z,1.30
2019-03-08T02:42:31.970Z,1.40
2019-03-08T02:43:31.963Z,1.30
2019-03-08T02:44:31.948Z,1.60
2019-03-08T02:45:31.959Z,1.50
2019-03-08T02:46:31.924Z,1.40
2019-03-08T02:47:31.909Z,1.60
2019-03-08T02:48:31.904Z,1.40
2019-03-08T02:49:31.892Z,1.40
2019-03-08T02:50:31.900Z,1.40
2019-03-08T02:51:31.877Z,1.70
2019-03-08T02:52:31.919Z,1.30
2019-03-08T02:53:31.849Z,1.30
2019-03-08T02:54:31.840Z,1.30
2019-03-08T02:55:31.821Z,1.30
2019-03-08T02:56:31.821Z,1.40
2019-03-08T02:57:31.799Z,1.30
2019-03-08T02:58:31.783Z,1.20
2019-03-08T02:59:31.777Z,1.50
2019-03-08T03:00:31.771Z,1.40
2019-03-08T03:01:31.794Z,1.20
2019-03-08T03:02:31.748Z,1.10
2019-03-08T03:03:31.737Z,1.30
2019-03-08T03:04:31.723Z,1.20
2019-03-08T03:05:31.704Z,1.50
2019-03-08T03:06:31.707Z,1.40
2019-03-08T03:07:31.694Z,1.30
2019-03-08T03:08:31.692Z,1.30
2019-03-08T03:09:31.730Z,1.30
2019-03-08T03:10:31.659Z,1.20
2019-03-08T03:11:31.682Z,1.40
2019-03-08T03:12:31.636Z,1.30
2019-03-08T03:13:31.630Z,1.20
2019-03-08T03:14:31.605Z,1.30
2019-03-08T03:15:31.614Z,1.40
2019-03-08T03:16:31.598Z,1.30
2019-03-08T03:17:31.581Z,1.10
2019-03-08T03:18:31.587Z,1.00
2019-03-08T03:19:31.595Z,1.00
2019-03-08T03:20:31.544Z,1.40
2019-03-08T03:21:31.538Z,1.30
2019-03-08T03:22:31.542Z,1.10
2019-03-08T03:23:31.526Z,1.20
2019-03-08T03:24:31.505Z,1.10
2019-03-08T03:25:31.490Z,1.20
2019-03-08T03:26:31.478Z,1.30
2019-03-08T03:27:31.465Z,1.30
2019-03-08T03:28:31.464Z,1.20
2019-03-08T03:29:31.443Z,1.10
2019-03-08T03:30:31.437Z,1.10
2019-03-08T03:31:31.424Z,0.90
2019-03-08T03:32:31.413Z,1.00
2019-03-08T03:33:31.412Z,0.90
2019-03-08T03:34:31.391Z,1.10
2019-03-08T03:35:31.401Z,1.30
2019-03-08T03:36:31.391Z,1.10
2019-03-08T03:37:31.373Z,1.20
2019-03-08T03:38:31.347Z,1.00
2019-03-08T03:39:31.339Z,1.10
2019-03-08T03:40:31.328Z,0.90
2019-03-08T03:41:31.369Z,1.30
2019-03-08T03:42:31.304Z,1.10
2019-03-08T03:43:31.287Z,0.80
2019-03-08T03:44:31.281Z,0.90
2019-03-08T03:45:31.284Z,0.90
2019-03-08T03:46:31.251Z,1.00
2019-03-08T03:47:31.245Z,0.90
2019-03-08T03:48:31.267Z,1.10
2019-03-08T03:49:31.223Z,0.90
2019-03-08T03:50:31.209Z,1.00
2019-03-08T03:51:31.209Z,1.00
2019-03-08T03:52:31.260Z,0.90
2019-03-08T03:53:31.274Z,1.10
2019-03-08T03:54:31.466Z,0.90
2019-03-08T03:55:31.212Z,1.10
2019-03-08T03:56:31.175Z,1.10
2019-03-08T03:57:31.147Z,1.10
2019-03-08T03:58:31.125Z,0.90
2019-03-08T03:59:31.117Z,1.00
2019-03-08T04:00:31.114Z,1.10
2019-03-08T04:01:31.129Z,0.90
2019-03-08T04:02:31.120Z,1.60
2019-03-08T04:03:31.080Z,1.70
2019-03-08T04:04:31.066Z,3.50
2019-03-08T04:05:31.064Z,2.60
2019-03-08T04:06:31.040Z,1.50
2019-03-08T04:07:31.032Z,1.10
2019-03-08T04:08:31.026Z,1.10
2019-03-08T04:09:31.009Z,1.10
2019-03-08T04:10:31.054Z,0.90
2019-03-08T04:11:30.993Z,0.90
2019-03-08T04:12:30.966Z,1.00
2019-03-08T04:13:30.964Z,1.20
2019-03-08T04:14:30.947Z,1.10
2019-03-08T04:15:30.976Z,1.00
2019-03-08T04:16:30.922Z,0.90
2019-03-08T04:17:30.931Z,1.00
2019-03-08T04:18:30.905Z,0.80
2019-03-08T04:19:30.905Z,0.80
2019-03-08T04:20:30.888Z,1.30
2019-03-08T04:21:30.915Z,0.90
2019-03-08T04:22:30.875Z,1.00
2019-03-08T04:23:30.867Z,1.10
2019-03-08T04:24:30.856Z,1.00
2019-03-08T04:25:30.872Z,1.20
2019-03-08T04:26:30.821Z,1.10
2019-03-08T04:27:30.809Z,0.90
2019-03-08T04:28:30.793Z,1.20
2019-03-08T04:29:30.787Z,0.70
2019-03-08T04:30:30.794Z,1.10
2019-03-08T04:31:30.763Z,1.40
2019-03-08T04:32:30.752Z,1.00
2019-03-08T04:33:30.755Z,0.90
2019-03-08T04:34:30.731Z,0.80
2019-03-08T04:35:30.739Z,0.90
2019-03-08T04:36:30.713Z,0.70
2019-03-08T04:37:30.719Z,0.80
2019-03-08T04:38:30.685Z,1.10
2019-03-08T04:39:30.682Z,0.80
2019-03-08T04:40:30.666Z,0.80
2019-03-08T04:41:30.649Z,0.90
2019-03-08T04:42:30.651Z,0.60
2019-03-08T04:43:30.634Z,0.90
2019-03-08T04:44:30.634Z,0.80
2019-03-08T04:45:30.617Z,0.80
2019-03-08T04:46:30.609Z,0.80
2019-03-08T04:47:30.609Z,1.20
2019-03-08T04:48:30.586Z,1.20
2019-03-08T04:49:30.574Z,0.90
2019-03-08T04:50:30.562Z,0.90
2019-03-08T04:51:30.554Z,0.70
2019-03-08T04:52:30.584Z,0.80
2019-03-08T04:53:30.541Z,0.80
2019-03-08T04:54:30.515Z,1.00
2019-03-08T04:55:30.514Z,0.70
2019-03-08T04:56:30.487Z,0.70
2019-03-08T04:57:30.490Z,0.80
2019-03-08T04:58:30.462Z,2.90
2019-03-08T04:59:30.460Z,2.20
2019-03-08T05:00:30.444Z,2.20
2019-03-08T05:01:30.424Z,2.10
2019-03-08T05:02:30.418Z,1.70
2019-03-08T05:03:30.411Z,1.20
2019-03-08T05:04:30.400Z,1.10
2019-03-08T05:05:30.411Z,0.90
2019-03-08T05:06:30.382Z,0.90
2019-03-08T05:07:30.369Z,0.80
2019-03-08T05:08:30.362Z,0.80
2019-03-08T05:09:30.346Z,0.90
2019-03-08T05:10:30.349Z,1.10
2019-03-08T05:11:30.321Z,0.90
2019-03-08T05:12:31.080Z,1.10
2019-03-08T05:13:30.295Z,0.90
2019-03-08T05:14:30.292Z,1.00
2019-03-08T05:15:30.281Z,1.10
2019-03-08T05:16:30.285Z,0.90
2019-03-08T05:17:30.256Z,0.90
2019-03-08T05:18:30.253Z,1.20
2019-03-08T05:19:30.233Z,0.80
2019-03-08T05:20:30.222Z,0.80
2019-03-08T05:21:30.783Z,0.80
2019-03-08T05:22:30.207Z,0.90
2019-03-08T05:23:30.259Z,1.00
2019-03-08T05:24:30.174Z,0.80
2019-03-08T05:25:30.193Z,1.30
2019-03-08T05:26:30.157Z,2.10
2019-03-08T05:27:30.142Z,2.20
2019-03-08T05:28:30.133Z,1.40
2019-03-08T05:29:30.127Z,1.30
2019-03-08T05:30:30.113Z,0.80
2019-03-08T05:31:30.102Z,0.80
2019-03-08T05:32:30.093Z,0.70
2019-03-08T05:33:30.100Z,0.60
2019-03-08T05:34:30.073Z,1.10
2019-03-08T05:35:30.058Z,0.90
2019-03-08T05:36:30.071Z,0.90
2019-03-08T05:37:30.050Z,0.80
2019-03-08T05:38:30.069Z,1.20
2019-03-08T05:39:30.012Z,0.90
2019-03-08T05:40:30.002Z,0.80
2019-03-08T05:41:30.000Z,0.90
2019-03-08T05:42:29.998Z,1.20
2019-03-08T05:43:29.971Z,0.60
2019-03-08T05:44:29.972Z,1.00
2019-03-08T05:45:30.031Z,1.10
2019-03-08T05:46:29.960Z,1.00
2019-03-08T05:47:29.926Z,0.90
2019-03-08T05:48:29.917Z,1.00
2019-03-08T05:49:29.902Z,0.60
2019-03-08T05:50:29.906Z,2.10
2019-03-08T05:51:29.882Z,3.00
2019-03-08T05:52:29.873Z,3.30
2019-03-08T05:53:29.858Z,5.90
2019-03-08T05:54:29.857Z,2.70
2019-03-08T05:55:29.842Z,1.90
2019-03-08T05:56:29.931Z,2.10
2019-03-08T05:57:29.853Z,1.40
2019-03-08T05:58:29.803Z,1.20
2019-03-08T05:59:29.794Z,0.90
2019-03-08T06:00:32.153Z,1.10
2019-03-08T06:01:30.771Z,1.00
2019-03-08T06:02:29.761Z,0.80
2019-03-08T06:03:29.767Z,1.00
2019-03-08T06:04:29.745Z,0.90
2019-03-08T06:05:29.724Z,0.80
2019-03-08T06:06:29.715Z,1.30
2019-03-08T06:07:29.704Z,0.90
2019-03-08T06:08:29.693Z,0.80
2019-03-08T06:09:29.683Z,1.10
2019-03-08T06:10:29.671Z,1.50
2019-03-08T06:11:29.656Z,1.20
2019-03-08T06:12:29.675Z,1.40
2019-03-08T06:13:29.635Z,1.40
2019-03-08T06:14:29.640Z,0.90
2019-03-08T06:15:29.677Z,1.10
2019-03-08T06:16:29.610Z,1.10
2019-03-08T06:17:29.617Z,1.00
2019-03-08T06:18:29.583Z,0.80
2019-03-08T06:19:29.568Z,2.80
2019-03-08T06:20:29.574Z,1.90
2019-03-08T06:21:29.542Z,3.10
2019-03-08T06:22:29.584Z,1.90
2019-03-08T06:23:29.552Z,1.10
2019-03-08T06:24:29.508Z,0.90
2019-03-08T06:25:29.527Z,1.00
2019-03-08T06:26:29.487Z,0.90
2019-03-08T06:27:29.504Z,0.90
2019-03-08T06:28:29.476Z,0.90
2019-03-08T06:29:29.464Z,1.00
2019-03-08T06:30:29.446Z,0.90
2019-03-08T06:31:29.443Z,1.30
2019-03-08T06:32:29.449Z,1.00
2019-03-08T06:33:29.436Z,0.80
2019-03-08T06:34:29.441Z,1.00
2019-03-08T06:35:29.407Z,1.10
2019-03-08T06:36:29.405Z,0.70
2019-03-08T06:37:29.373Z,1.50
2019-03-08T06:38:29.354Z,0.80
2019-03-08T06:39:29.351Z,1.00
2019-03-08T06:40:29.343Z,1.00
2019-03-08T06:41:29.322Z,1.20
2019-03-08T06:42:29.315Z,1.00
2019-03-08T06:43:29.318Z,0.80
2019-03-08T06:44:29.295Z,0.60
2019-03-08T06:45:29.295Z,1.00
2019-03-08T06:46:29.287Z,1.00
2019-03-08T06:47:29.266Z,0.90
2019-03-08T06:48:29.245Z,0.80
2019-03-08T06:49:29.244Z,0.80
2019-03-08T06:50:29.219Z,0.80
2019-03-08T06:51:29.293Z,1.00
2019-03-08T06:52:29.195Z,0.70
2019-03-08T06:53:29.201Z,0.60
2019-03-08T06:54:29.241Z,0.50
2019-03-08T06:55:29.170Z,0.80
2019-03-08T06:56:29.154Z,0.90
2019-03-08T06:57:29.176Z,0.80
2019-03-08T06:58:29.332Z,0.80
2019-03-08T06:59:29.130Z,0.80
2019-03-08T07:00:29.124Z,0.90
2019-03-08T07:01:29.098Z,0.70
2019-03-08T07:02:30.258Z,0.70
2019-03-08T07:03:29.115Z,1.00
2019-03-08T07:04:29.104Z,0.70
2019-03-08T07:05:29.071Z,0.80
2019-03-08T07:06:29.068Z,0.80
2019-03-08T07:07:29.064Z,1.00
2019-03-08T07:08:29.030Z,1.00
2019-03-08T07:09:29.016Z,0.80
2019-03-08T07:10:29.013Z,0.80
2019-03-08T07:11:28.993Z,0.70
2019-03-08T07:12:28.992Z,0.80
2019-03-08T07:13:28.974Z,0.80
2019-03-08T07:14:28.959Z,0.50
2019-03-08T07:15:28.949Z,1.30
2019-03-08T07:16:28.936Z,1.70
2019-03-08T07:17:28.985Z,1.40
2019-03-08T07:18:28.921Z,0.90
2019-03-08T07:19:28.898Z,0.70
2019-03-08T07:20:28.904Z,0.90
2019-03-08T07:21:28.884Z,0.70
2019-03-08T07:22:28.881Z,1.00
2019-03-08T07:23:28.864Z,0.70
2019-03-08T07:24:28.913Z,0.80
2019-03-08T07:25:28.858Z,0.90
2019-03-08T07:26:28.823Z,0.60
2019-03-08T07:27:28.809Z,0.90
2019-03-08T07:28:28.899Z,0.60
2019-03-08T07:29:28.829Z,0.60
2019-03-08T07:30:28.787Z,0.60
2019-03-08T07:31:28.798Z,0.80
2019-03-08T07:32:28.778Z,1.10
2019-03-08T07:33:28.745Z,1.00
2019-03-08T07:34:28.758Z,1.20
2019-03-08T07:35:28.729Z,0.70
2019-03-08T07:36:28.721Z,1.00
2019-03-08T07:37:28.721Z,0.70
2019-03-08T07:38:28.698Z,0.70
2019-03-08T07:39:28.755Z,0.90
2019-03-08T07:40:28.669Z,0.90
2019-03-08T07:41:28.972Z,0.80
2019-03-08T07:42:28.683Z,0.90
2019-03-08T07:43:28.679Z,0.80
2019-03-08T07:44:28.685Z,0.90
2019-03-08T07:45:28.618Z,0.90
2019-03-08T07:46:28.687Z,0.80
2019-03-08T07:47:28.588Z,0.80
2019-03-08T07:48:28.587Z,0.90
2019-03-08T07:49:28.569Z,1.00
2019-03-08T07:50:28.566Z,1.00
2019-03-08T07:51:28.546Z,1.00
2019-03-08T07:52:28.533Z,0.80
2019-03-08T07:53:28.547Z,0.90
2019-03-08T07:54:28.522Z,1.40
2019-03-08T07:55:28.505Z,0.90
2019-03-08T07:56:28.498Z,1.10
2019-03-08T07:57:28.526Z,0.70
2019-03-08T07:58:28.508Z,1.20
2019-03-08T07:59:28.519Z,1.00
2019-03-08T08:00:28.485Z,1.00
2019-03-08T08:01:28.446Z,1.00
2019-03-08T08:02:28.450Z,1.10
2019-03-08T08:03:28.413Z,1.30
2019-03-08T08:04:30.429Z,1.00
2019-03-08T08:05:28.391Z,1.00
2019-03-08T08:06:28.394Z,1.20
2019-03-08T08:07:28.363Z,1.00
2019-03-08T08:08:28.373Z,1.00
2019-03-08T08:09:28.343Z,1.00
2019-03-08T08:10:28.334Z,2.70
2019-03-08T08:11:28.324Z,1.80
2019-03-08T08:12:28.315Z,1.80
2019-03-08T08:13:36.953Z,1.20
2019-03-08T08:14:59.583Z,1.40
2019-03-08T08:15:59.592Z,1.60
2019-03-08T08:16:59.549Z,1.30
2019-03-08T08:17:59.540Z,1.70
2019-03-08T08:18:59.528Z,4.20
2019-03-08T08:19:59.543Z,1.80
2019-03-08T08:21:01.168Z,1.70
2019-03-08T08:21:59.493Z,1.30
2019-03-08T08:22:59.485Z,1.40
2019-03-08T08:23:59.483Z,1.70
2019-03-08T08:24:59.470Z,2.10
2019-03-08T08:25:59.464Z,1.50
2019-03-08T08:26:59.433Z,1.30
2019-03-08T08:27:59.425Z,1.90
2019-03-08T08:28:59.414Z,1.70
2019-03-08T08:29:59.414Z,1.90
2019-03-08T08:30:59.395Z,1.50
2019-03-08T08:31:59.384Z,1.90
2019-03-08T08:32:59.385Z,1.60
2019-03-08T08:33:59.361Z,1.70
2019-03-08T08:34:59.352Z,1.80
2019-03-08T08:35:59.333Z,1.50
2019-03-08T08:36:59.334Z,1.80
2019-03-08T08:37:59.318Z,1.40
2019-03-08T08:38:59.332Z,1.50
2019-03-08T08:39:59.325Z,1.70
2019-03-08T08:40:59.296Z,2.00
2019-03-08T08:41:59.274Z,1.90
2019-03-08T08:42:59.278Z,1.50
2019-03-08T08:43:59.253Z,1.70
2019-03-08T08:44:59.259Z,3.00
2019-03-08T08:45:59.229Z,2.10
2019-03-08T08:46:59.222Z,2.10
2019-03-08T08:47:59.208Z,2.50
2019-03-08T08:48:59.364Z,2.20
2019-03-08T08:49:59.202Z,2.50
2019-03-08T08:50:59.182Z,2.50
2019-03-08T08:51:59.178Z,2.30
2019-03-08T08:52:59.160Z,2.30
2019-03-08T08:53:59.171Z,2.20
2019-03-08T08:54:59.147Z,2.60
2019-03-08T08:55:59.130Z,2.70
2019-03-08T08:56:59.109Z,2.20
2019-03-08T08:57:59.104Z,2.20
2019-03-08T08:58:59.099Z,1.90
2019-03-08T08:59:59.093Z,1.90
2019-03-08T09:00:59.111Z,2.00
2019-03-08T09:01:59.104Z,2.10
2019-03-08T09:03:00.533Z,2.20
2019-03-08T09:03:59.145Z,2.20
2019-03-08T09:05:01.073Z,2.10
2019-03-08T09:05:59.013Z,1.90
2019-03-08T09:06:58.999Z,2.20
2019-03-08T09:07:58.997Z,3.00
2019-03-08T09:08:58.976Z,2.10
2019-03-08T09:09:58.975Z,2.40
2019-03-08T09:10:58.961Z,2.40
2019-03-08T09:11:58.965Z,2.20
2019-03-08T09:12:58.935Z,2.20
2019-03-08T09:13:58.923Z,2.70
2019-03-08T09:14:58.918Z,2.40
2019-03-08T09:15:58.901Z,1.90
2019-03-08T09:16:58.898Z,2.20
2019-03-08T09:17:58.879Z,2.00
2019-03-08T09:18:58.898Z,2.30
2019-03-08T09:19:59.367Z,1.90
2019-03-08T09:20:58.848Z,2.10
2019-03-08T09:21:58.839Z,2.00
2019-03-08T09:22:58.826Z,2.00
2019-03-08T09:23:58.819Z,2.30
2019-03-08T09:24:58.836Z,1.90
2019-03-08T09:25:58.782Z,1.90
2019-03-08T09:26:58.779Z,1.90
2019-03-08T09:27:58.774Z,2.10
2019-03-08T09:28:58.752Z,2.10
2019-03-08T09:29:58.750Z,2.40
2019-03-08T09:30:58.747Z,2.20
2019-03-08T09:31:58.723Z,2.20
2019-03-08T09:32:59.578Z,2.30
2019-03-08T09:33:58.708Z,2.00
2019-03-08T09:34:58.690Z,2.50
2019-03-08T09:35:58.685Z,2.20
2019-03-08T09:36:58.668Z,2.50
2019-03-08T09:37:58.652Z,2.60
2019-03-08T09:38:58.651Z,2.40
2019-03-08T09:39:58.632Z,2.60
2019-03-08T09:40:58.629Z,2.30
2019-03-08T09:41:58.629Z,3.00
2019-03-08T09:42:58.606Z,2.70
2019-03-08T09:43:58.587Z,2.90
2019-03-08T09:44:58.612Z,2.60
2019-03-08T09:45:58.565Z,2.90
2019-03-08T09:46:58.562Z,2.80
2019-03-08T09:47:58.560Z,3.10
2019-03-08T09:48:58.952Z,3.00
2019-03-08T09:49:58.527Z,3.00
2019-03-08T09:50:58.509Z,2.70
2019-03-08T09:51:58.517Z,2.70
2019-03-08T09:52:58.493Z,2.80
2019-03-08T09:53:58.477Z,3.00
2019-03-08T09:54:58.476Z,2.70
2019-03-08T09:55:58.466Z,2.80
2019-03-08T09:56:58.444Z,3.10
2019-03-08T09:57:58.434Z,3.10
2019-03-08T09:58:58.416Z,3.00
2019-03-08T09:59:58.419Z,2.80
2019-03-08T10:00:58.408Z,3.00
2019-03-08T10:01:58.405Z,2.70
2019-03-08T10:02:58.407Z,2.90
2019-03-08T10:03:58.379Z,2.70
2019-03-08T10:04:58.377Z,3.00
2019-03-08T10:05:58.358Z,2.50
2019-03-08T10:06:58.351Z,3.20
2019-03-08T10:07:58.318Z,3.10
2019-03-08T10:08:58.311Z,2.90
2019-03-08T10:09:58.310Z,2.90
2019-03-08T10:10:58.319Z,3.30
2019-03-08T10:11:58.282Z,3.10
2019-03-08T10:12:58.274Z,3.20
2019-03-08T10:13:58.255Z,3.40
2019-03-08T10:14:58.247Z,3.40
2019-03-08T10:15:58.252Z,3.80
2019-03-08T10:16:58.272Z,3.80
2019-03-08T10:17:58.227Z,3.70
2019-03-08T10:18:58.235Z,3.60
2019-03-08T10:19:58.211Z,3.90
2019-03-08T10:20:58.181Z,4.10
2019-03-08T10:21:58.173Z,4.20
2019-03-08T10:22:58.163Z,4.40
2019-03-08T10:23:58.152Z,4.00
2019-03-08T10:24:58.136Z,4.10
2019-03-08T10:25:58.136Z,4.50
2019-03-08T10:26:58.150Z,3.60
2019-03-08T10:27:58.145Z,3.80
2019-03-08T10:28:58.097Z,3.10
2019-03-08T10:29:58.091Z,3.60
2019-03-08T10:30:58.075Z,2.90
2019-03-08T10:31:58.109Z,2.70
2019-03-08T10:32:58.070Z,3.00
2019-03-08T10:33:58.051Z,2.50
2019-03-08T10:34:58.040Z,2.30
2019-03-08T10:35:58.019Z,2.70
2019-03-08T10:36:58.013Z,2.60
2019-03-08T10:37:57.999Z,2.70
2019-03-08T10:38:58.031Z,2.70
2019-03-08T10:39:57.991Z,2.30
2019-03-08T10:40:57.976Z,2.10
2019-03-08T10:41:57.963Z,2.50
2019-03-08T10:42:58.858Z,2.80
2019-03-08T10:43:57.956Z,2.40
2019-03-08T10:44:57.958Z,3.00
2019-03-08T10:45:57.917Z,3.10
2019-03-08T10:46:57.906Z,2.90
2019-03-08T10:47:57.915Z,2.90
2019-03-08T10:48:57.930Z,2.80
2019-03-08T10:49:57.874Z,3.00
2019-03-08T10:50:57.858Z,2.20
2019-03-08T10:51:57.849Z,2.40
2019-03-08T10:52:57.845Z,2.30
2019-03-08T10:54:00.899Z,2.50
2019-03-08T10:54:58.511Z,2.50
2019-03-08T10:55:57.835Z,2.20
2019-03-08T10:56:57.795Z,2.60
2019-03-08T10:57:57.785Z,1.70
2019-03-08T10:58:57.776Z,1.80
2019-03-08T10:59:57.760Z,1.90
2019-03-08T11:00:57.754Z,1.60
2019-03-08T11:01:57.748Z,2.30
2019-03-08T11:02:57.730Z,1.60
2019-03-08T11:03:57.791Z,2.10
2019-03-08T11:04:57.732Z,1.90
2019-03-08T11:05:57.701Z,2.70
2019-03-08T11:06:57.683Z,2.30
2019-03-08T11:07:57.666Z,2.10
2019-03-08T11:08:57.674Z,1.90
2019-03-08T11:09:57.668Z,1.30
2019-03-08T11:11:05.949Z,1.70
2019-03-08T11:11:58.645Z,1.70
2019-03-08T11:12:57.621Z,1.80
2019-03-08T11:13:57.603Z,1.70
2019-03-08T11:14:57.593Z,1.70
2019-03-08T11:15:57.611Z,1.40
2019-03-08T11:16:57.584Z,1.50
2019-03-08T11:17:57.608Z,1.50
2019-03-08T11:18:57.570Z,1.60
2019-03-08T11:19:57.541Z,1.80
2019-03-08T11:20:57.536Z,1.80
2019-03-08T11:21:57.537Z,2.00
2019-03-08T11:22:57.506Z,2.40
2019-03-08T11:23:57.501Z,2.60
2019-03-08T11:24:57.481Z,2.60
2019-03-08T11:25:57.489Z,2.40
2019-03-08T11:27:04.769Z,2.20
2019-03-08T11:27:58.475Z,3.30
2019-03-08T11:28:57.444Z,2.80
2019-03-08T11:29:57.438Z,3.50
2019-03-08T11:30:57.414Z,2.10
2019-03-08T11:31:57.410Z,2.70
2019-03-08T11:32:57.410Z,2.40
2019-03-08T11:33:57.417Z,2.70
2019-03-08T11:34:57.428Z,2.70
2019-03-08T11:35:57.368Z,3.30
2019-03-08T11:36:57.360Z,3.20
2019-03-08T11:37:57.363Z,2.70
2019-03-08T11:38:57.340Z,2.70
2019-03-08T11:39:57.353Z,3.10
2019-03-08T11:40:57.374Z,3.40
2019-03-08T11:41:57.307Z,2.90
2019-03-08T11:42:57.283Z,2.60
2019-03-08T11:43:57.286Z,3.80
2019-03-08T11:44:57.279Z,3.50
2019-03-08T11:45:57.276Z,3.20
2019-03-08T11:46:57.252Z,2.90
2019-03-08T11:47:57.233Z,2.70
2019-03-08T11:48:57.228Z,3.00
2019-03-08T11:49:57.233Z,3.20
2019-03-08T11:50:57.201Z,3.40
2019-03-08T11:51:57.184Z,3.20
2019-03-08T11:52:57.169Z,2.40
2019-03-08T11:53:57.164Z,2.70
2019-03-08T11:54:57.160Z,2.90
2019-03-08T11:55:57.145Z,2.70
2019-03-08T11:56:57.138Z,2.60
2019-03-08T11:57:57.122Z,2.70
2019-03-08T11:58:57.111Z,2.40
2019-03-08T11:59:57.097Z,2.30
2019-03-08T12:00:57.089Z,2.20
2019-03-08T12:01:59.082Z,2.60
2019-03-08T12:02:57.069Z,3.00
2019-03-08T12:03:57.122Z,2.70
2019-03-08T12:04:57.051Z,3.00
2019-03-08T12:05:57.029Z,2.80
2019-03-08T12:06:57.024Z,2.90
2019-03-08T12:07:57.013Z,3.20
2019-03-08T12:08:57.015Z,3.50
2019-03-08T12:09:57.029Z,3.40
2019-03-08T12:10:56.998Z,3.90
2019-03-08T12:11:56.975Z,3.10
2019-03-08T12:12:56.961Z,3.40
2019-03-08T12:13:56.975Z,3.00
2019-03-08T12:14:56.939Z,3.50
2019-03-08T12:15:56.924Z,3.30
2019-03-08T12:16:56.923Z,3.40
2019-03-08T12:17:56.922Z,3.20
2019-03-08T12:18:56.891Z,2.70
2019-03-08T12:19:56.922Z,2.70
2019-03-08T12:20:56.922Z,2.60
2019-03-08T12:21:56.857Z,2.80
2019-03-08T12:22:56.854Z,2.80
2019-03-08T12:23:56.853Z,2.40
2019-03-08T12:24:56.829Z,2.80
2019-03-08T12:25:56.817Z,3.30
2019-03-08T12:26:56.822Z,2.40
2019-03-08T12:27:56.794Z,2.60
2019-03-08T12:28:56.820Z,2.80
2019-03-08T12:29:56.796Z,3.90
2019-03-08T12:30:56.768Z,2.60
2019-03-08T12:31:56.756Z,2.40
2019-03-08T12:32:56.805Z,2.00
2019-03-08T12:33:56.725Z,2.70
2019-03-08T12:34:56.720Z,2.00
2019-03-08T12:35:56.720Z,2.50
2019-03-08T12:36:56.698Z,2.70
2019-03-08T12:37:56.700Z,2.50
2019-03-08T12:38:56.674Z,2.40
2019-03-08T12:39:56.664Z,2.50
2019-03-08T12:40:56.656Z,2.50
2019-03-08T12:41:56.659Z,3.00
2019-03-08T12:42:56.625Z,2.60
2019-03-08T12:43:56.612Z,2.90
2019-03-08T12:44:56.606Z,2.80
2019-03-08T12:45:56.597Z,3.00
2019-03-08T12:46:56.579Z,2.80
2019-03-08T12:47:56.569Z,2.70
2019-03-08T12:48:56.638Z,2.80
2019-03-08T12:49:56.548Z,2.60
2019-03-08T12:50:56.538Z,2.70
2019-03-08T12:51:56.540Z,2.40
2019-03-08T12:52:56.513Z,2.60
2019-03-08T12:53:56.515Z,2.30
2019-03-08T12:54:56.493Z,2.80
2019-03-08T12:55:56.475Z,2.90
2019-03-08T12:56:56.473Z,2.30
2019-03-08T12:57:56.462Z,2.60
2019-03-08T12:58:56.448Z,3.20
2019-03-08T12:59:56.455Z,3.60
2019-03-08T13:00:56.429Z,2.40
2019-03-08T13:01:56.406Z,3.10
2019-03-08T13:02:56.408Z,3.10
2019-03-08T13:03:56.392Z,3.30
2019-03-08T13:04:56.380Z,3.00
2019-03-08T13:05:56.379Z,2.80
2019-03-08T13:06:56.355Z,2.80
2019-03-08T13:07:56.350Z,2.80
2019-03-08T13:08:56.343Z,2.80
2019-03-08T13:09:56.319Z,2.40
2019-03-08T13:10:56.337Z,2.40
2019-03-08T13:11:56.325Z,2.50
2019-03-08T13:12:56.332Z,3.10
2019-03-08T13:13:56.285Z,2.40
2019-03-08T13:14:56.285Z,2.90
2019-03-08T13:15:56.278Z,2.70
2019-03-08T13:16:56.254Z,3.20
2019-03-08T13:17:56.262Z,3.10
2019-03-08T13:18:56.220Z,3.00